createdAt,value
2022-12-05T00:01:59.241Z,3.22
2022-12-05T00:04:26.875Z,3.21
2022-12-05T00:06:54.464Z,3.30
2022-12-05T00:09:21.942Z,3.20
2022-12-05T00:11:50.250Z,3.20
2022-12-05T00:14:19.210Z,3.29
2022-12-05T00:16:46.788Z,3.28
2022-12-05T00:19:15.552Z,3.31
2022-12-05T00:21:43.739Z,3.24
2022-12-05T00:24:13.455Z,3.15
2022-12-05T00:26:41.104Z,3.17
2022-12-05T00:29:08.640Z,3.07
2022-12-05T00:31:37.630Z,3.13
2022-12-05T00:34:05.392Z,3.10
2022-12-05T00:36:36.891Z,3.13
2022-12-05T00:39:06.406Z,3.22
2022-12-05T00:41:34.006Z,3.29
2022-12-05T00:44:02.519Z,3.22
2022-12-05T00:46:31.862Z,3.20
2022-12-05T00:49:01.598Z,3.18
2022-12-05T00:51:31.184Z,3.23
2022-12-05T00:53:59.618Z,3.20
2022-12-05T00:56:28.527Z,3.27
2022-12-05T00:58:57.164Z,3.25
2022-12-05T01:01:26.493Z,3.07
2022-12-05T01:03:55.530Z,2.97
2022-12-05T01:06:25.276Z,2.82
2022-12-05T01:08:54.301Z,2.70
2022-12-05T01:11:23.115Z,2.69
2022-12-05T01:13:50.897Z,2.65
2022-12-05T01:16:20.429Z,2.70
2022-12-05T01:18:48.112Z,2.69
2022-12-05T01:21:15.752Z,2.75
2022-12-05T01:23:44.711Z,2.81
2022-12-05T01:26:14.601Z,2.85
2022-12-05T01:28:42.459Z,3.09
2022-12-05T01:31:11.772Z,3.19
2022-12-05T01:33:39.463Z,3.29
2022-12-05T01:36:11.579Z,3.29
2022-12-05T01:38:39.890Z,3.28
2022-12-05T01:41:11.664Z,3.29
2022-12-05T01:43:55.071Z,3.34
2022-12-05T01:46:22.741Z,3.39
2022-12-05T01:48:50.705Z,3.34
2022-12-05T01:51:18.827Z,3.30
2022-12-05T01:53:46.752Z,3.16
2022-12-05T01:56:15.763Z,3.06
2022-12-05T01:58:43.704Z,2.95
2022-12-05T02:01:12.619Z,2.78
2022-12-05T02:03:41.824Z,2.57
2022-12-05T02:06:10.587Z,2.44
2022-12-05T02:08:38.673Z,2.46
2022-12-05T02:11:08.303Z,2.48
2022-12-05T02:13:46.602Z,2.46
2022-12-05T02:16:20.111Z,2.47
2022-12-05T02:18:55.405Z,2.45
2022-12-05T02:21:52.639Z,2.38
2022-12-05T02:24:41.011Z,2.36
2022-12-05T02:27:21.358Z,2.45
2022-12-05T02:30:09.485Z,2.46
2022-12-05T02:32:48.046Z,2.44
2022-12-05T02:35:22.775Z,2.54
2022-12-05T02:37:55.626Z,2.48
2022-12-05T02:40:25.598Z,2.54
2022-12-05T02:42:58.728Z,2.58
2022-12-05T02:45:29.622Z,2.61
2022-12-05T02:47:57.862Z,2.51
2022-12-05T02:50:27.139Z,2.50
2022-12-05T02:52:55.817Z,2.57
2022-12-05T02:55:24.320Z,2.66
2022-12-05T02:57:54.056Z,2.54
2022-12-05T03:00:21.791Z,2.55
2022-12-05T03:02:53.598Z,2.44
2022-12-05T03:05:24.381Z,2.43
2022-12-05T03:07:53.274Z,2.40
2022-12-05T03:10:23.424Z,2.46
2022-12-05T03:12:52.826Z,2.48
2022-12-05T03:15:24.500Z,2.51
2022-12-05T03:17:56.383Z,2.57
2022-12-05T03:20:28.690Z,2.57
2022-12-05T03:22:58.912Z,2.44
2022-12-05T03:25:31.329Z,2.36
2022-12-05T03:28:05.134Z,2.41
2022-12-05T03:30:35.974Z,2.38
2022-12-05T03:33:09.064Z,2.36
2022-12-05T03:35:38.456Z,2.33
2022-12-05T03:38:10.431Z,2.21
2022-12-05T03:40:41.803Z,2.22
2022-12-05T03:43:11.762Z,2.24
2022-12-05T03:45:45.197Z,2.29
2022-12-05T03:48:17.516Z,2.30
2022-12-05T03:50:47.655Z,2.35
2022-12-05T03:53:19.929Z,2.26
2022-12-05T03:55:50.433Z,2.24
2022-12-05T03:58:25.071Z,2.24
2022-12-05T04:00:54.051Z,2.18
2022-12-05T04:03:26.254Z,2.28
2022-12-05T04:05:56.342Z,2.30
2022-12-05T04:08:27.216Z,2.33
2022-12-05T04:10:56.798Z,2.36
2022-12-05T04:13:28.683Z,2.44
2022-12-05T04:16:16.758Z,2.42
2022-12-05T04:18:50.681Z,2.35
2022-12-05T04:21:36.970Z,2.37
2022-12-05T04:24:25.018Z,2.37
2022-12-05T04:26:56.933Z,2.44
2022-12-05T04:29:28.236Z,2.43
2022-12-05T04:31:59.669Z,2.62
2022-12-05T04:34:29.375Z,2.50
2022-12-05T04:37:00.727Z,2.40
2022-12-05T04:39:32.302Z,2.39
2022-12-05T04:42:01.724Z,2.42
2022-12-05T04:44:32.026Z,2.38
2022-12-05T04:47:02.784Z,2.41
2022-12-05T04:49:34.728Z,2.43
2022-12-05T04:52:03.879Z,2.42
2022-12-05T04:54:33.227Z,2.42
2022-12-05T04:57:08.136Z,2.44
2022-12-05T04:59:35.975Z,2.49
2022-12-05T05:02:08.062Z,2.57
2022-12-05T05:04:39.138Z,2.51
2022-12-05T05:07:08.289Z,2.43
2022-12-05T05:09:36.112Z,2.40
2022-12-05T05:12:03.728Z,2.46
2022-12-05T05:14:31.298Z,2.43
2022-12-05T05:16:59.023Z,2.42
2022-12-05T05:19:26.598Z,2.53
2022-12-05T05:21:55.440Z,2.52
2022-12-05T05:24:23.487Z,2.44
2022-12-05T05:26:56.969Z,2.60
2022-12-05T05:29:24.984Z,2.61
2022-12-05T05:31:52.553Z,2.52
2022-12-05T05:34:20.060Z,2.52
2022-12-05T05:36:52.466Z,2.52
2022-12-05T05:39:21.400Z,2.50
2022-12-05T05:41:48.910Z,2.53
2022-12-05T05:44:16.395Z,2.63
2022-12-05T05:46:43.981Z,2.73
2022-12-05T05:49:11.718Z,2.94
2022-12-05T05:51:39.240Z,2.85
2022-12-05T05:54:06.755Z,2.72
2022-12-05T05:56:35.628Z,2.80
2022-12-05T05:59:04.236Z,2.82
2022-12-05T06:01:31.905Z,2.76
2022-12-05T06:03:59.629Z,2.83
2022-12-05T06:06:27.556Z,2.92
2022-12-05T06:08:55.624Z,2.91
2022-12-05T06:11:26.773Z,2.86
2022-12-05T06:13:56.370Z,2.73
2022-12-05T06:16:24.057Z,2.74
2022-12-05T06:18:52.546Z,2.74
2022-12-05T06:21:20.498Z,2.68
2022-12-05T06:23:48.372Z,2.64
2022-12-05T06:26:17.596Z,2.60
2022-12-05T06:28:45.417Z,2.54
2022-12-05T06:31:15.565Z,2.54
2022-12-05T06:33:43.100Z,2.54
2022-12-05T06:36:12.989Z,2.59
2022-12-05T06:38:42.439Z,2.63
2022-12-05T06:41:11.720Z,2.58
2022-12-05T06:43:39.261Z,2.57
2022-12-05T06:46:07.659Z,2.75
2022-12-05T06:48:36.752Z,2.80
2022-12-05T06:51:06.847Z,2.82
2022-12-05T06:53:34.416Z,2.92
2022-12-05T06:56:03.472Z,2.84
2022-12-05T06:58:30.973Z,2.86
2022-12-05T07:01:16.090Z,2.87
2022-12-05T07:03:45.058Z,2.82
2022-12-05T07:06:12.595Z,2.75
2022-12-05T07:08:41.373Z,2.67
2022-12-05T07:11:09.343Z,2.73
2022-12-05T07:13:36.867Z,2.78
2022-12-05T07:16:07.036Z,2.81
2022-12-05T07:18:35.044Z,2.75
2022-12-05T07:21:13.825Z,2.79
2022-12-05T07:23:42.151Z,2.77
2022-12-05T07:26:11.268Z,2.75
2022-12-05T07:28:38.864Z,2.77
2022-12-05T07:31:08.177Z,2.82
2022-12-05T07:33:36.378Z,2.87
2022-12-05T07:36:07.205Z,2.86
2022-12-05T07:38:34.733Z,2.83
2022-12-05T07:41:10.213Z,2.88
2022-12-05T07:43:40.746Z,2.84
2022-12-05T07:46:09.563Z,2.77
2022-12-05T07:48:37.381Z,2.85
2022-12-05T07:51:09.933Z,2.90
2022-12-05T07:53:38.437Z,2.96
2022-12-05T07:56:07.798Z,2.81
2022-12-05T07:58:36.040Z,2.82
2022-12-05T08:01:07.358Z,2.81
2022-12-05T08:03:35.213Z,2.82
2022-12-05T08:06:04.448Z,2.83
2022-12-05T08:08:33.558Z,2.88
2022-12-05T08:11:04.677Z,2.87
2022-12-05T08:13:32.387Z,2.89
2022-12-05T08:16:02.982Z,2.88
2022-12-05T08:18:30.690Z,2.87
2022-12-05T08:21:02.858Z,2.85
2022-12-05T08:23:31.682Z,2.91
2022-12-05T08:26:04.031Z,2.98
2022-12-05T08:28:31.883Z,2.96
2022-12-05T08:31:16.499Z,3.03
2022-12-05T08:33:44.697Z,3.18
2022-12-05T08:36:15.334Z,3.11
2022-12-05T08:38:43.628Z,3.18
2022-12-05T08:41:14.349Z,3.23
2022-12-05T08:43:42.583Z,3.24
2022-12-05T08:46:10.453Z,3.21
2022-12-05T08:48:38.364Z,3.22
2022-12-05T08:51:08.289Z,3.30
2022-12-05T08:53:40.935Z,3.28
2022-12-05T08:56:11.993Z,3.10
2022-12-05T08:58:40.350Z,3.28
2022-12-05T09:01:09.666Z,3.36
2022-12-05T09:03:37.427Z,3.35
2022-12-05T09:06:09.581Z,3.32
2022-12-05T09:08:37.676Z,3.32
2022-12-05T09:11:08.629Z,3.21
2022-12-05T09:13:37.491Z,3.19
2022-12-05T09:16:08.956Z,3.32
2022-12-05T09:18:36.643Z,3.32
2022-12-05T09:21:07.691Z,3.31
2022-12-05T09:23:35.233Z,3.51
2022-12-05T09:26:02.994Z,3.45
2022-12-05T09:28:31.134Z,3.36
2022-12-05T09:31:01.765Z,3.44
2022-12-05T09:33:30.487Z,3.50
2022-12-05T09:35:58.513Z,3.55
2022-12-05T09:38:26.388Z,3.45
2022-12-05T09:41:01.745Z,3.56
2022-12-05T09:43:35.887Z,3.43
2022-12-05T09:46:13.659Z,3.35
2022-12-05T09:48:41.515Z,3.28
2022-12-05T09:51:10.700Z,3.36
2022-12-05T09:53:40.211Z,3.31
2022-12-05T09:56:14.908Z,3.41
2022-12-05T09:58:44.455Z,3.53
2022-12-05T10:01:29.555Z,3.56
2022-12-05T10:04:12.175Z,3.57
2022-12-05T10:06:42.768Z,3.66
2022-12-05T10:09:24.367Z,3.65
2022-12-05T10:11:57.756Z,3.67
2022-12-05T10:14:33.619Z,3.70
2022-12-05T10:17:08.579Z,3.80
2022-12-05T10:19:45.531Z,3.77
2022-12-05T10:22:20.459Z,3.65
2022-12-05T10:24:51.967Z,3.66
2022-12-05T10:27:27.207Z,3.73
2022-12-05T10:29:59.110Z,3.75
2022-12-05T10:32:33.596Z,3.77
2022-12-05T10:35:10.363Z,3.75
2022-12-05T10:37:39.373Z,3.87
2022-12-05T10:40:14.049Z,3.77
2022-12-05T10:42:41.828Z,3.72
2022-12-05T10:45:15.146Z,3.77
2022-12-05T10:47:45.473Z,3.78
2022-12-05T10:50:25.777Z,4.03
2022-12-05T10:52:54.757Z,3.99
2022-12-05T10:55:22.823Z,4.08
2022-12-05T10:57:52.411Z,4.14
2022-12-05T11:00:25.254Z,4.25
2022-12-05T11:02:55.227Z,4.01
2022-12-05T11:05:30.741Z,4.14
2022-12-05T11:08:00.060Z,3.98
2022-12-05T11:10:29.239Z,4.01
2022-12-05T11:12:57.826Z,4.04
2022-12-05T11:15:28.056Z,4.00
2022-12-05T11:17:59.077Z,3.97
2022-12-05T11:20:40.628Z,4.00
2022-12-05T11:23:22.125Z,4.07
2022-12-05T11:25:50.000Z,4.11
2022-12-05T11:28:29.403Z,4.09
2022-12-05T11:30:59.382Z,4.10
2022-12-05T11:33:29.079Z,4.09
2022-12-05T11:36:00.265Z,4.07
2022-12-05T11:38:32.229Z,4.09
2022-12-05T11:41:09.285Z,3.89
2022-12-05T11:44:13.423Z,3.84
2022-12-05T11:46:49.136Z,3.87
2022-12-05T11:49:29.379Z,3.84
2022-12-05T11:52:05.079Z,3.97
2022-12-05T11:55:06.269Z,4.03
2022-12-05T11:57:45.065Z,4.02
2022-12-05T12:00:22.423Z,4.00
2022-12-05T12:03:12.969Z,4.01
2022-12-05T12:05:46.075Z,3.98
2022-12-05T12:08:21.199Z,4.05
2022-12-05T12:10:56.516Z,4.06
2022-12-05T12:13:36.709Z,4.11
2022-12-05T12:16:11.480Z,4.12
2022-12-05T12:18:50.588Z,4.13
2022-12-05T12:21:20.696Z,4.13
2022-12-05T12:23:59.723Z,4.13
2022-12-05T12:26:36.577Z,4.20
2022-12-05T12:29:11.658Z,4.23
2022-12-05T12:31:55.336Z,4.22
2022-12-05T12:34:38.939Z,4.14
2022-12-05T12:37:15.067Z,4.21
2022-12-05T12:39:49.035Z,4.18
2022-12-05T12:42:23.012Z,4.20
2022-12-05T12:45:13.450Z,4.09
2022-12-05T12:47:48.448Z,4.17
2022-12-05T12:50:19.913Z,4.19
2022-12-05T12:53:12.849Z,4.28
2022-12-05T12:55:43.644Z,4.34
2022-12-05T12:58:21.986Z,4.39
2022-12-05T13:00:59.883Z,4.23
2022-12-05T13:03:32.030Z,4.35
2022-12-05T13:06:02.353Z,4.37
2022-12-05T13:08:35.880Z,4.38
2022-12-05T13:11:06.883Z,4.38
2022-12-05T13:13:38.308Z,4.44
2022-12-05T13:16:08.685Z,4.36
2022-12-05T13:18:36.537Z,4.44
2022-12-05T13:21:07.159Z,4.40
2022-12-05T13:23:42.179Z,4.28
2022-12-05T13:26:11.700Z,4.36
2022-12-05T13:28:42.119Z,4.32
2022-12-05T13:31:10.292Z,4.28
2022-12-05T13:33:43.915Z,4.28
2022-12-05T13:36:30.408Z,4.22
2022-12-05T13:39:18.491Z,4.36
2022-12-05T13:42:04.788Z,4.33
2022-12-05T13:44:37.596Z,4.23
2022-12-05T13:47:07.293Z,4.22
2022-12-05T13:49:43.520Z,4.22
2022-12-05T13:52:14.506Z,4.24
2022-12-05T13:54:45.848Z,4.26
2022-12-05T13:57:45.751Z,4.32
2022-12-05T14:00:31.939Z,4.37
2022-12-05T14:03:05.461Z,4.43
2022-12-05T14:05:44.455Z,4.38
2022-12-05T14:08:48.761Z,4.42
2022-12-05T14:11:18.027Z,4.49
2022-12-05T14:13:46.140Z,4.49
2022-12-05T14:16:46.909Z,4.41
2022-12-05T14:19:50.460Z,4.39
2022-12-05T14:22:39.004Z,4.43
2022-12-05T14:25:13.713Z,4.47
2022-12-05T14:27:47.985Z,4.40
2022-12-05T14:30:22.599Z,4.47
2022-12-05T14:32:51.723Z,4.38
2022-12-05T14:35:30.095Z,4.37
2022-12-05T14:37:58.738Z,4.38
2022-12-05T14:40:32.259Z,4.37
2022-12-05T14:43:03.730Z,4.34
2022-12-05T14:45:34.452Z,4.34
2022-12-05T14:48:03.143Z,4.34
2022-12-05T14:50:41.165Z,4.38
2022-12-05T14:53:37.799Z,4.35
2022-12-05T14:56:19.928Z,4.36
2022-12-05T14:58:51.879Z,4.40
2022-12-05T15:01:22.529Z,4.38
2022-12-05T15:04:06.769Z,4.52
2022-12-05T15:06:36.547Z,4.54
2022-12-05T15:09:35.995Z,4.56
2022-12-05T15:11:57.122Z,4.58
2022-12-05T15:14:31.300Z,4.61
2022-12-05T15:17:00.807Z,4.55
2022-12-05T15:19:30.886Z,4.43
2022-12-05T15:22:01.422Z,4.49
2022-12-05T15:24:29.016Z,4.54
2022-12-05T15:26:57.934Z,4.49
2022-12-05T15:29:29.090Z,4.45
2022-12-05T15:32:02.117Z,4.46
2022-12-05T15:34:31.596Z,4.59
2022-12-05T15:37:03.810Z,4.48
2022-12-05T15:39:51.466Z,4.38
2022-12-05T15:42:18.967Z,4.42
2022-12-05T15:44:47.823Z,4.47
2022-12-05T15:47:21.151Z,4.56
2022-12-05T15:49:48.836Z,4.51
2022-12-05T15:55:22.631Z,4.44
2022-12-05T15:58:12.825Z,4.46
2022-12-05T16:00:46.411Z,4.57
2022-12-05T16:03:17.089Z,4.52
2022-12-05T16:05:50.359Z,4.53
2022-12-05T16:08:18.345Z,4.45
2022-12-05T16:10:48.126Z,4.48
2022-12-05T16:13:16.863Z,4.39
2022-12-05T16:15:52.612Z,4.34
2022-12-05T16:18:27.502Z,4.31
2022-12-05T16:20:55.661Z,4.34
2022-12-05T16:23:26.683Z,4.38
2022-12-05T16:25:54.577Z,4.40
2022-12-05T16:28:24.173Z,4.53
2022-12-05T16:30:58.335Z,4.53
2022-12-05T16:33:26.878Z,4.47
2022-12-05T16:35:54.764Z,4.44
2022-12-05T16:38:25.658Z,4.38
2022-12-05T16:40:58.598Z,4.46
2022-12-05T16:43:29.151Z,4.57
2022-12-05T16:46:01.052Z,4.56
2022-12-05T16:48:30.220Z,4.51
2022-12-05T16:51:17.562Z,4.53
2022-12-05T16:53:48.661Z,4.53
2022-12-05T16:56:18.011Z,4.58
2022-12-05T16:58:45.960Z,4.63
2022-12-05T17:01:20.942Z,4.63
2022-12-05T17:03:48.947Z,4.56
2022-12-05T17:06:19.192Z,4.52
2022-12-05T17:08:46.840Z,4.47
2022-12-05T17:11:19.515Z,4.57
2022-12-05T17:13:48.549Z,4.56
2022-12-05T17:16:21.626Z,4.45
2022-12-05T17:19:28.530Z,4.42
2022-12-05T17:21:54.347Z,4.53
2022-12-05T17:24:22.240Z,4.56
2022-12-05T17:26:49.921Z,4.61
2022-12-05T17:29:17.596Z,4.54
2022-12-05T17:31:46.755Z,4.62
2022-12-05T17:34:18.542Z,4.54
2022-12-05T17:36:46.558Z,4.57
2022-12-05T17:39:14.568Z,4.51
2022-12-05T17:41:42.292Z,4.58
2022-12-05T17:44:16.018Z,4.60
2022-12-05T17:46:57.080Z,4.66
2022-12-05T17:49:26.181Z,4.59
2022-12-05T17:52:24.656Z,4.57
2022-12-05T17:54:42.368Z,4.62
2022-12-05T17:57:10.046Z,4.66
2022-12-05T17:59:38.164Z,4.66
2022-12-05T18:02:07.567Z,4.78
2022-12-05T18:04:35.275Z,4.69
2022-12-05T18:07:03.118Z,4.65
2022-12-05T18:09:31.055Z,4.64
2022-12-05T18:11:58.686Z,4.63
2022-12-05T18:14:28.367Z,4.69
2022-12-05T18:16:56.471Z,4.59
2022-12-05T18:19:26.953Z,4.65
2022-12-05T18:21:54.712Z,4.62
2022-12-05T18:24:22.436Z,4.56
2022-12-05T18:26:50.045Z,4.59
2022-12-05T18:29:17.768Z,4.53
2022-12-05T18:31:45.525Z,4.53
2022-12-05T18:34:13.358Z,4.57
2022-12-05T18:36:42.454Z,4.61
2022-12-05T18:39:12.577Z,4.54
2022-12-05T18:41:40.212Z,4.59
2022-12-05T18:44:08.658Z,4.65
2022-12-05T18:46:37.994Z,4.65
2022-12-05T18:49:05.810Z,4.69
2022-12-05T18:51:33.590Z,4.51
2022-12-05T18:54:02.640Z,4.44
2022-12-05T18:56:40.015Z,4.39
2022-12-05T18:59:09.504Z,4.37
2022-12-05T19:01:38.856Z,4.34
2022-12-05T19:04:08.747Z,4.29
2022-12-05T19:06:40.120Z,4.33
2022-12-05T19:09:12.732Z,4.32
2022-12-05T19:11:47.017Z,4.44
2022-12-05T19:14:15.822Z,4.48
2022-12-05T19:16:43.574Z,4.51
2022-12-05T19:19:12.064Z,4.51
2022-12-05T19:21:39.661Z,4.44
2022-12-05T19:24:16.746Z,4.44
2022-12-05T19:26:46.496Z,4.43
2022-12-05T19:29:19.493Z,4.33
2022-12-05T19:31:49.697Z,4.29
2022-12-05T19:34:24.472Z,4.26
2022-12-05T19:36:53.777Z,4.28
2022-12-05T19:39:26.788Z,4.21
2022-12-05T19:41:57.885Z,4.19
2022-12-05T19:44:26.907Z,4.18
2022-12-05T19:46:55.050Z,4.18
2022-12-05T19:49:23.454Z,4.24
2022-12-05T19:51:52.623Z,4.19
2022-12-05T19:54:26.838Z,4.21
2022-12-05T19:57:00.827Z,4.28
2022-12-05T19:59:29.680Z,4.24
2022-12-05T20:02:01.114Z,4.22
2022-12-05T20:04:29.013Z,4.11
2022-12-05T20:06:58.875Z,4.28
2022-12-05T20:09:30.624Z,4.32
2022-12-05T20:12:03.961Z,4.19
2022-12-05T20:14:33.812Z,4.11
2022-12-05T20:17:13.601Z,4.06
2022-12-05T20:19:45.641Z,4.10
2022-12-05T20:22:13.403Z,4.12
2022-12-05T20:24:42.749Z,4.02
2022-12-05T20:27:11.938Z,4.06
2022-12-05T20:30:00.131Z,4.14
2022-12-05T20:32:28.255Z,4.09
2022-12-05T20:34:59.586Z,4.06
2022-12-05T20:37:29.926Z,4.10
2022-12-05T20:40:15.767Z,4.11
2022-12-05T20:42:46.757Z,4.15
2022-12-05T20:45:14.619Z,4.11
2022-12-05T20:47:42.307Z,4.05
2022-12-05T20:50:12.196Z,4.03
2022-12-05T20:52:46.609Z,4.08
2022-12-05T20:55:20.281Z,4.07
2022-12-05T20:57:49.268Z,4.00
2022-12-05T21:00:17.265Z,4.03
2022-12-05T21:02:46.421Z,3.93
2022-12-05T21:05:40.563Z,3.92
2022-12-05T21:08:08.379Z,4.11
2022-12-05T21:10:37.414Z,4.18
2022-12-05T21:13:07.676Z,4.09
2022-12-05T21:15:58.179Z,4.03
2022-12-05T21:18:25.869Z,4.11
2022-12-05T21:20:57.668Z,4.17
2022-12-05T21:23:25.393Z,4.11
2022-12-05T21:25:57.102Z,4.10
2022-12-05T21:28:24.965Z,4.13
2022-12-05T21:31:03.145Z,4.22
2022-12-05T21:33:30.998Z,4.12
2022-12-05T21:35:58.743Z,4.21
2022-12-05T21:38:28.701Z,4.17
2022-12-05T21:40:59.426Z,4.19
2022-12-05T21:43:28.489Z,4.23
2022-12-05T21:45:59.307Z,4.29
2022-12-05T21:48:30.029Z,4.28
2022-12-05T21:50:59.143Z,4.16
2022-12-05T21:53:30.421Z,4.18
2022-12-05T21:56:04.222Z,4.12
2022-12-05T21:58:36.848Z,4.12
2022-12-05T22:01:31.007Z,4.09
2022-12-05T22:04:05.414Z,4.08
2022-12-05T22:06:35.514Z,4.07
2022-12-05T22:09:03.266Z,4.10
2022-12-05T22:11:34.750Z,4.04
2022-12-05T22:14:06.993Z,4.11
2022-12-05T22:16:36.431Z,4.06
2022-12-05T22:19:04.446Z,4.06
2022-12-05T22:21:33.842Z,4.04
2022-12-05T22:24:01.884Z,4.02
2022-12-05T22:26:35.465Z,4.02
2022-12-05T22:29:06.506Z,4.03
2022-12-05T22:31:38.232Z,4.06
2022-12-05T22:34:11.890Z,4.10
2022-12-05T22:36:43.868Z,4.09
2022-12-05T22:39:15.130Z,4.23
2022-12-05T22:41:42.981Z,4.32
2022-12-05T22:44:12.149Z,4.19
2022-12-05T22:46:42.254Z,4.20
2022-12-05T22:49:12.544Z,4.20
2022-12-05T22:51:40.215Z,4.12
2022-12-05T22:54:08.646Z,4.16
2022-12-05T22:56:36.252Z,4.11
2022-12-05T22:59:04.068Z,4.16
2022-12-05T23:01:34.224Z,4.15
2022-12-05T23:04:03.487Z,4.16
2022-12-05T23:06:33.964Z,4.18
2022-12-05T23:09:02.046Z,4.14
2022-12-05T23:11:30.752Z,4.13
2022-12-05T23:14:02.165Z,4.13
2022-12-05T23:16:34.633Z,4.16
2022-12-05T23:19:04.008Z,4.15
2022-12-05T23:21:33.500Z,4.13
2022-12-05T23:24:04.777Z,4.18
2022-12-05T23:26:34.832Z,4.19
2022-12-05T23:29:15.173Z,4.18
2022-12-05T23:31:44.691Z,4.13
2022-12-05T23:34:14.509Z,4.12
2022-12-05T23:36:43.921Z,4.05
2022-12-05T23:39:11.750Z,4.12
2022-12-05T23:41:41.756Z,4.04
2022-12-05T23:44:12.012Z,4.11
2022-12-05T23:46:41.016Z,4.10
2022-12-05T23:49:10.465Z,4.16
2022-12-05T23:51:40.085Z,4.18
2022-12-05T23:54:10.656Z,4.13
2022-12-05T23:56:42.562Z,4.13
2022-12-05T23:59:10.750Z,4.06
